TAF and METAR

Could not understand the following METAR

YPPD 230930Z AUTO 05013KT 9999 // NCD 29/11 Q1016 RF00.0/000.0

TAF for Port Hedland International Airport

TAF YPPD 230504Z 2306/2406 03015KT CAVOK FM230800 02008KT CAVOK FM231200 VRB05KT CAVOK FM240000 09013KT CAVOK
Report created 23. mai 07:04

between 23. mai 08:00 - 24. mai 08:00

wind 15 knots from NNE (030°) Clear sky

From 23. mai 10:00

wind 8 knots from NNE (020°) Clear sky

From 23. mai 14:00

wind 5 knots from various directions Clear sky

From 24. mai 02:00

wind 13 knots from E (090°) Clear sky
Port Hedland International Airport in Australia at 6m

Latest 5 airports